»·PEaware :: N62MW KSNA-KLAS

N62MW :: KSNA-KLAS

FLIGHT INFORMATION

Flight Status: Arrived
Operator: Privately registered:
United States
More flights under this callsign
Pilot: Drew L. (13237)
Aircraft: BOMBARDIER BD-100 CHALLENGER 300
(CL30)
More flights by this aircraft type
Origin: KSNA John Wayne-Orange Co
United States
Destination: KLAS McCarran Intl
United States
More flights between these airports :: More routes between these airports
Route: FINZZ2 MISEN KEPEC6
File this flight plan on PilotEdge
Remarks:
Altitude:
(Current/Filed)
25,000ft
Speed:
(Current/Filed)
350kts
Departed: 01-Sep-20 03:41 PM
Arrived: 01-Sep-20 04:21 PM
Distance/Time
Traveled:
196nm/0:40
Distance/Time
To Go:
Arrived

Flight Plot

Page will automatically refresh every two minutes.

Flight plan parsing failed; only flown route is shown


Map Options




Map Legend


Flown Route
Filed Route
Departure Airport
Arrival Airport
Navaid (VOR, NDB)
Fix

Horizontal Profiles

Position Reports

Time Latitude Longitude Heading Altitude Ground
Speed
01-Sep-20 15:07 33.664658 -117.873764 19 62ft 0kts
01-Sep-20 15:08 33.664658 -117.873764 19 62ft 0kts
01-Sep-20 15:09 33.664658 -117.873764 19 62ft 0kts
01-Sep-20 15:10 33.664658 -117.873764 19 62ft 0kts
01-Sep-20 15:11 33.664658 -117.873764 19 62ft 0kts
01-Sep-20 15:12 33.664658 -117.873764 19 62ft 0kts
01-Sep-20 15:13 33.664658 -117.873764 19 62ft 0kts
01-Sep-20 15:14 33.664658 -117.873764 19 62ft 0kts
01-Sep-20 15:15 33.664658 -117.873764 19 62ft 0kts
01-Sep-20 15:16 33.664658 -117.873764 19 62ft 0kts
01-Sep-20 15:17 33.664658 -117.873764 19 62ft 0kts
01-Sep-20 15:18 33.664658 -117.873764 19 62ft 0kts
01-Sep-20 15:19 33.664658 -117.873764 19 62ft 0kts
01-Sep-20 15:20 33.664658 -117.873764 19 62ft 0kts
01-Sep-20 15:21 33.664658 -117.873764 19 62ft 0kts
01-Sep-20 15:22 33.664658 -117.873764 19 62ft 0kts
01-Sep-20 15:23 33.664658 -117.873764 19 63ft 0kts
01-Sep-20 15:24 33.664983 -117.873668 11 63ft 9kts
01-Sep-20 15:25 33.667654 -117.872427 41 63ft 17kts
01-Sep-20 15:26 33.670814 -117.869141 40 63ft 9kts
01-Sep-20 15:27 33.674675 -117.866094 27 63ft 14kts
01-Sep-20 15:28 33.678432 -117.863724 27 63ft 15kts
01-Sep-20 15:29 33.680509 -117.862798 304 63ft 0kts
01-Sep-20 15:30 33.680509 -117.862798 304 63ft 0kts
01-Sep-20 15:31 33.680509 -117.862798 304 63ft 0kts
01-Sep-20 15:32 33.680509 -117.862798 304 63ft 0kts
01-Sep-20 15:33 33.680509 -117.862798 304 63ft 0kts
01-Sep-20 15:34 33.680509 -117.862798 304 63ft 0kts
01-Sep-20 15:35 33.680509 -117.862798 304 63ft 0kts
01-Sep-20 15:36 33.680509 -117.862798 304 63ft 0kts
01-Sep-20 15:37 33.680509 -117.862798 304 63ft 0kts
01-Sep-20 15:38 33.680509 -117.862798 304 63ft 0kts
01-Sep-20 15:39 33.680509 -117.862798 304 63ft 0kts
01-Sep-20 15:40 33.676771 -117.868147 208 63ft 119kts
01-Sep-20 15:41 33.627424 -117.888722 189 3385ft 227kts
01-Sep-20 15:42 33.563273 -117.910616 219 7143ft 267kts
01-Sep-20 15:43 33.505640 -117.974740 231 10869ft 300kts
01-Sep-20 15:44 33.528697 -118.062976 312 14614ft 321kts
01-Sep-20 15:45 33.608817 -118.115438 15 17690ft 372kts
01-Sep-20 15:46 33.706652 -118.061365 27 20761ft 403kts
01-Sep-20 15:47 33.809268 -118.001530 27 23778ft 417kts
01-Sep-20 15:48 33.898800 -117.912391 47 24951ft 433kts
01-Sep-20 15:49 33.983849 -117.807763 46 25014ft 440kts
01-Sep-20 15:50 34.070185 -117.701430 46 25015ft 444kts
01-Sep-20 15:51 34.156137 -117.595241 46 25015ft 446kts
01-Sep-20 15:52 34.243484 -117.486994 46 25017ft 446kts
01-Sep-20 15:53 34.330080 -117.379336 46 25035ft 446kts
01-Sep-20 15:54 34.416407 -117.271668 47 25048ft 445kts
01-Sep-20 15:55 34.503409 -117.162820 47 25047ft 451kts
01-Sep-20 15:56 34.589920 -117.054251 47 25047ft 445kts
01-Sep-20 15:57 34.676221 -116.945573 47 25016ft 451kts
01-Sep-20 15:58 34.764036 -116.834533 44 24991ft 460kts
01-Sep-20 15:59 34.852847 -116.722070 44 24989ft 459kts
01-Sep-20 16:00 34.941475 -116.609385 44 24351ft 458kts
01-Sep-20 16:01 35.026817 -116.500506 45 23996ft 428kts
01-Sep-20 16:02 35.109066 -116.395542 44 24019ft 430kts
01-Sep-20 16:03 35.189917 -116.294270 44 22590ft 435kts
01-Sep-20 16:04 35.274114 -116.188555 44 20994ft 432kts
01-Sep-20 16:05 35.356856 -116.084347 44 19286ft 421kts
01-Sep-20 16:06 35.420263 -115.969512 81 17445ft 421kts
01-Sep-20 16:07 35.434130 -115.828119 81 15645ft 413kts
01-Sep-20 16:08 35.447940 -115.688401 81 13851ft 409kts
01-Sep-20 16:09 35.461453 -115.552806 81 13037ft 401kts
01-Sep-20 16:10 35.475158 -115.416170 81 13035ft 397kts
01-Sep-20 16:11 35.541545 -115.324609 21 13037ft 382kts
01-Sep-20 16:12 35.640576 -115.273831 21 12540ft 388kts
01-Sep-20 16:13 35.739477 -115.222981 21 11522ft 377kts
01-Sep-20 16:14 35.836117 -115.173569 21 10502ft 367kts
01-Sep-20 16:15 35.926331 -115.127454 21 9461ft 321kts
01-Sep-20 16:16 36.003111 -115.088125 21 8408ft 276kts
01-Sep-20 16:17 36.066922 -115.060880 356 6660ft 220kts
01-Sep-20 16:18 36.110423 -115.098979 300 4165ft 180kts
01-Sep-20 16:19 36.109468 -115.150267 210 2669ft 167kts
01-Sep-20 16:20 36.083654 -115.166740 231 2185ft 10kts
01-Sep-20 16:21 36.081429 -115.169463 267 2185ft 13kts
01-Sep-20 16:22 36.080943 -115.171921 171 2185ft 6kts

Navigation Log

Ident Type
Flight plan parsing failed, navigation log unavailable